CheckWX is a tool to help pilots better visualize weather data.  It is not intended as a substitute for an official pre-flight weather briefing.

05:44:02 UTC

KFIG METAR
Clearfield-Lawrence Airport
Clearfield, Pennsylvania, USA
Current

50 mins ago

KFIG 280454Z AUTO 25013G27KT 10SM SCT035 BKN060 M06/M12 A2981 RMK AO2 PK WND 27028/0428 UPE05B30E40 SLP115 P0000 T10611122 400281061
Observed
Feb-28 @ 04:54 UTC
Wind
  • 250° at 13 KTS
  • Gusting to 27 KTS
Visibility
10 SM
Flight Rules
VFR
Cloud Levels
  • Scattered at 3,500' AGL
  • Broken at 6,000' AGL
Temperature
-6°C / 21°F
Dewpoint
-12°C / 10°F
Humidity
63%
Altimeter
29.81" Hg
Pressure
1009.52 hPa
Current Rain
0.01"
Previous

2 hours ago

KFIG 280354Z AUTO 25020G32KT 8SM UP SCT029 OVC036 M06/M12 A2981 RMK AO2 PK WND 25032/0353 UPB44SNE29 SLP115 P0000 T10611117
Observed
Feb-28 @ 03:54 UTC
Wind
  • 250° at 20 KTS
  • Gusting to 32 KTS
Visibility
8 SM
Flight Rules
VFR
Conditions
Unknown precipitation
Cloud Levels
  • Scattered at 2,900' AGL
  • Overcast at 3,600' AGL
Temperature
-6°C / 21°F
Dewpoint
-12°C / 10°F
Humidity
63%
Altimeter
29.81" Hg
Pressure
1009.52 hPa
Current Rain
0.01"
Previous

2 hours ago

KFIG 280339Z AUTO 25014G25KT 10SM FEW018 SCT028 OVC037 M06/M11 A2981 RMK AO2 SNE29 P0000 T10611111
Observed
Feb-28 @ 03:39 UTC
Wind
  • 250° at 14 KTS
  • Gusting to 25 KTS
Visibility
10 SM
Flight Rules
VFR
Cloud Levels
  • Few at 1,800' AGL
  • Scattered at 2,800' AGL
  • Overcast at 3,700' AGL
Temperature
-6°C / 21°F
Dewpoint
-11°C / 12°F
Humidity
68%
Altimeter
29.81" Hg
Pressure
1009.52 hPa
Current Rain
0.01"